sensor_id;sensor_type;location;lat;lon;timestamp;temperature;humidity
4584;DHT22;2304;47.606;12.186;2023-01-28T00:04:57;1.70;69.90
4584;DHT22;2304;47.606;12.186;2023-01-28T00:10:00;1.60;70.40
4584;DHT22;2304;47.606;12.186;2023-01-28T00:15:03;1.50;70.70
4584;DHT22;2304;47.606;12.186;2023-01-28T00:20:06;1.50;71.20
4584;DHT22;2304;47.606;12.186;2023-01-28T00:25:09;1.40;71.50
4584;DHT22;2304;47.606;12.186;2023-01-28T00:30:12;1.40;72.10
4584;DHT22;2304;47.606;12.186;2023-01-28T00:35:14;1.40;72.10
4584;DHT22;2304;47.606;12.186;2023-01-28T00:40:17;1.50;71.90
4584;DHT22;2304;47.606;12.186;2023-01-28T00:45:19;1.50;71.90
4584;DHT22;2304;47.606;12.186;2023-01-28T00:50:21;1.40;71.50
4584;DHT22;2304;47.606;12.186;2023-01-28T00:55:24;1.40;72.20
4584;DHT22;2304;47.606;12.186;2023-01-28T01:00:26;1.40;71.90
4584;DHT22;2304;47.606;12.186;2023-01-28T01:05:28;1.50;71.80
4584;DHT22;2304;47.606;12.186;2023-01-28T01:10:31;1.40;71.90
4584;DHT22;2304;47.606;12.186;2023-01-28T01:15:33;1.50;73.00
4584;DHT22;2304;47.606;12.186;2023-01-28T01:20:35;1.40;73.20
4584;DHT22;2304;47.606;12.186;2023-01-28T01:25:40;1.50;72.60
4584;DHT22;2304;47.606;12.186;2023-01-28T01:30:42;1.50;73.40
4584;DHT22;2304;47.606;12.186;2023-01-28T01:35:44;1.50;73.20
4584;DHT22;2304;47.606;12.186;2023-01-28T01:40:57;1.50;73.00
4584;DHT22;2304;47.606;12.186;2023-01-28T01:46:00;1.50;73.00
4584;DHT22;2304;47.606;12.186;2023-01-28T01:51:06;1.50;72.50
4584;DHT22;2304;47.606;12.186;2023-01-28T01:56:13;1.50;72.60
4584;DHT22;2304;47.606;12.186;2023-01-28T02:01:18;1.50;72.50
4584;DHT22;2304;47.606;12.186;2023-01-28T02:06:21;1.50;72.20
4584;DHT22;2304;47.606;12.186;2023-01-28T02:11:28;1.50;72.10
4584;DHT22;2304;47.606;12.186;2023-01-28T02:16:31;1.50;72.20
4584;DHT22;2304;47.606;12.186;2023-01-28T02:21:54;1.60;72.00
4584;DHT22;2304;47.606;12.186;2023-01-28T02:27:16;1.50;71.70
4584;DHT22;2304;47.606;12.186;2023-01-28T02:32:24;1.50;71.80
4584;DHT22;2304;47.606;12.186;2023-01-28T02:37:33;1.60;71.40
4584;DHT22;2304;47.606;12.186;2023-01-28T02:42:38;1.70;71.20
4584;DHT22;2304;47.606;12.186;2023-01-28T02:47:42;1.70;70.20
4584;DHT22;2304;47.606;12.186;2023-01-28T02:53:13;1.80;69.80
4584;DHT22;2304;47.606;12.186;2023-01-28T02:58:41;1.80;70.40
4584;DHT22;2304;47.606;12.186;2023-01-28T03:03:56;1.70;70.20
4584;DHT22;2304;47.606;12.186;2023-01-28T03:09:02;1.70;70.40
4584;DHT22;2304;47.606;12.186;2023-01-28T03:14:23;1.60;70.20
4584;DHT22;2304;47.606;12.186;2023-01-28T03:19:46;1.70;70.30
4584;DHT22;2304;47.606;12.186;2023-01-28T03:25:07;1.70;70.00
4584;DHT22;2304;47.606;12.186;2023-01-28T03:30:31;1.70;70.00
4584;DHT22;2304;47.606;12.186;2023-01-28T03:35:53;1.80;70.10
4584;DHT22;2304;47.606;12.186;2023-01-28T03:41:19;1.90;69.70
4584;DHT22;2304;47.606;12.186;2023-01-28T03:46:22;2.00;69.40
4584;DHT22;2304;47.606;12.186;2023-01-28T03:51:25;2.00;69.10
4584;DHT22;2304;47.606;12.186;2023-01-28T03:56:27;2.00;69.10
4584;DHT22;2304;47.606;12.186;2023-01-28T04:01:36;2.10;68.70
4584;DHT22;2304;47.606;12.186;2023-01-28T04:06:40;2.10;68.90
4584;DHT22;2304;47.606;12.186;2023-01-28T04:11:41;2.10;68.70
4584;DHT22;2304;47.606;12.186;2023-01-28T04:16:44;2.10;68.70
4584;DHT22;2304;47.606;12.186;2023-01-28T04:21:47;2.10;68.60
4584;DHT22;2304;47.606;12.186;2023-01-28T04:26:49;2.20;69.00
4584;DHT22;2304;47.606;12.186;2023-01-28T04:31:51;2.20;68.50
4584;DHT22;2304;47.606;12.186;2023-01-28T04:36:54;2.10;68.00
4584;DHT22;2304;47.606;12.186;2023-01-28T04:41:56;2.10;69.00
4584;DHT22;2304;47.606;12.186;2023-01-28T04:46:57;2.00;69.30
4584;DHT22;2304;47.606;12.186;2023-01-28T04:52:00;2.00;69.60
4584;DHT22;2304;47.606;12.186;2023-01-28T04:57:02;1.90;70.20
4584;DHT22;2304;47.606;12.186;2023-01-28T05:02:04;1.90;71.10
4584;DHT22;2304;47.606;12.186;2023-01-28T05:07:07;1.90;70.50
4584;DHT22;2304;47.606;12.186;2023-01-28T05:12:09;1.90;70.40
4584;DHT22;2304;47.606;12.186;2023-01-28T05:17:11;1.90;70.40
4584;DHT22;2304;47.606;12.186;2023-01-28T05:22:14;1.90;70.50
4584;DHT22;2304;47.606;12.186;2023-01-28T05:27:16;1.70;71.10
4584;DHT22;2304;47.606;12.186;2023-01-28T05:32:17;1.70;70.80
4584;DHT22;2304;47.606;12.186;2023-01-28T05:37:21;1.70;70.60
4584;DHT22;2304;47.606;12.186;2023-01-28T05:42:22;1.70;70.90
4584;DHT22;2304;47.606;12.186;2023-01-28T05:47:24;1.70;71.30
4584;DHT22;2304;47.606;12.186;2023-01-28T05:52:27;1.80;71.20
4584;DHT22;2304;47.606;12.186;2023-01-28T05:57:29;2.00;70.70
4584;DHT22;2304;47.606;12.186;2023-01-28T06:02:31;1.80;70.40
4584;DHT22;2304;47.606;12.186;2023-01-28T06:07:34;1.90;70.80
4584;DHT22;2304;47.606;12.186;2023-01-28T06:12:36;2.00;70.80
4584;DHT22;2304;47.606;12.186;2023-01-28T06:17:38;1.90;70.50
4584;DHT22;2304;47.606;12.186;2023-01-28T06:22:41;1.90;70.90
4584;DHT22;2304;47.606;12.186;2023-01-28T06:27:43;1.80;71.20
4584;DHT22;2304;47.606;12.186;2023-01-28T06:32:45;1.90;71.30
4584;DHT22;2304;47.606;12.186;2023-01-28T06:37:48;1.80;71.10
4584;DHT22;2304;47.606;12.186;2023-01-28T06:42:51;1.90;71.70
4584;DHT22;2304;47.606;12.186;2023-01-28T06:47:53;1.90;71.80
4584;DHT22;2304;47.606;12.186;2023-01-28T06:52:56;2.10;73.80
4584;DHT22;2304;47.606;12.186;2023-01-28T06:57:58;2.20;72.10
4584;DHT22;2304;47.606;12.186;2023-01-28T07:03:00;2.30;72.60
4584;DHT22;2304;47.606;12.186;2023-01-28T07:08:03;2.40;73.30
4584;DHT22;2304;47.606;12.186;2023-01-28T07:13:05;2.30;71.00
4584;DHT22;2304;47.606;12.186;2023-01-28T07:18:07;2.40;73.30
4584;DHT22;2304;47.606;12.186;2023-01-28T07:23:10;2.60;74.90
4584;DHT22;2304;47.606;12.186;2023-01-28T07:28:12;2.50;72.20
4584;DHT22;2304;47.606;12.186;2023-01-28T07:33:14;2.60;71.40
4584;DHT22;2304;47.606;12.186;2023-01-28T07:38:17;2.40;70.70
4584;DHT22;2304;47.606;12.186;2023-01-28T07:43:18;2.30;69.80
4584;DHT22;2304;47.606;12.186;2023-01-28T07:48:20;2.30;70.60
4584;DHT22;2304;47.606;12.186;2023-01-28T07:53:23;2.10;69.90
4584;DHT22;2304;47.606;12.186;2023-01-28T07:58:25;2.10;70.60
4584;DHT22;2304;47.606;12.186;2023-01-28T08:03:27;2.10;71.00
4584;DHT22;2304;47.606;12.186;2023-01-28T08:08:30;2.00;70.30
4584;DHT22;2304;47.606;12.186;2023-01-28T08:13:32;2.10;70.90
4584;DHT22;2304;47.606;12.186;2023-01-28T08:18:34;2.20;70.70
4584;DHT22;2304;47.606;12.186;2023-01-28T08:23:37;2.20;70.10
4584;DHT22;2304;47.606;12.186;2023-01-28T08:28:39;2.30;71.40
4584;DHT22;2304;47.606;12.186;2023-01-28T08:33:41;2.40;70.90
4584;DHT22;2304;47.606;12.186;2023-01-28T08:38:44;2.50;70.00
4584;DHT22;2304;47.606;12.186;2023-01-28T08:43:46;2.60;72.90
4584;DHT22;2304;47.606;12.186;2023-01-28T08:48:48;2.70;71.20
4584;DHT22;2304;47.606;12.186;2023-01-28T08:53:52;2.60;69.50
4584;DHT22;2304;47.606;12.186;2023-01-28T08:58:53;2.60;69.20
4584;DHT22;2304;47.606;12.186;2023-01-28T09:03:55;2.60;69.50
4584;DHT22;2304;47.606;12.186;2023-01-28T09:08:59;2.60;69.40
4584;DHT22;2304;47.606;12.186;2023-01-28T09:14:01;2.60;69.30
4584;DHT22;2304;47.606;12.186;2023-01-28T09:19:02;2.50;69.00
4584;DHT22;2304;47.606;12.186;2023-01-28T09:24:09;2.40;69.30
4584;DHT22;2304;47.606;12.186;2023-01-28T09:29:11;2.50;69.70
4584;DHT22;2304;47.606;12.186;2023-01-28T09:34:13;2.60;70.10
4584;DHT22;2304;47.606;12.186;2023-01-28T09:39:16;2.90;70.50
4584;DHT22;2304;47.606;12.186;2023-01-28T09:44:32;2.90;69.20
4584;DHT22;2304;47.606;12.186;2023-01-28T09:49:42;2.80;68.30
4584;DHT22;2304;47.606;12.186;2023-01-28T09:54:49;2.90;68.40
4584;DHT22;2304;47.606;12.186;2023-01-28T09:59:53;3.00;68.40
4584;DHT22;2304;47.606;12.186;2023-01-28T10:04:58;3.20;68.40
4584;DHT22;2304;47.606;12.186;2023-01-28T10:10:07;3.30;67.90
4584;DHT22;2304;47.606;12.186;2023-01-28T10:20:45;3.70;67.40
4584;DHT22;2304;47.606;12.186;2023-01-28T10:25:50;3.80;65.50
4584;DHT22;2304;47.606;12.186;2023-01-28T10:30:52;4.00;68.70
4584;DHT22;2304;47.606;12.186;2023-01-28T10:35:54;4.20;65.00
4584;DHT22;2304;47.606;12.186;2023-01-28T10:41:00;4.10;63.20
4584;DHT22;2304;47.606;12.186;2023-01-28T10:46:06;4.10;63.20
4584;DHT22;2304;47.606;12.186;2023-01-28T10:51:09;4.20;62.20
4584;DHT22;2304;47.606;12.186;2023-01-28T10:56:16;4.60;63.30
4584;DHT22;2304;47.606;12.186;2023-01-28T11:01:18;4.80;62.10
4584;DHT22;2304;47.606;12.186;2023-01-28T11:06:28;4.90;61.80
4584;DHT22;2304;47.606;12.186;2023-01-28T11:11:31;5.10;60.90
4584;DHT22;2304;47.606;12.186;2023-01-28T11:16:33;5.30;61.20
4584;DHT22;2304;47.606;12.186;2023-01-28T11:21:35;5.20;59.90
4584;DHT22;2304;47.606;12.186;2023-01-28T11:26:43;5.50;60.20
4584;DHT22;2304;47.606;12.186;2023-01-28T11:31:45;5.50;59.80
4584;DHT22;2304;47.606;12.186;2023-01-28T11:36:51;5.80;59.00
4584;DHT22;2304;47.606;12.186;2023-01-28T11:42:02;5.70;57.70
4584;DHT22;2304;47.606;12.186;2023-01-28T11:47:25;5.60;56.80
4584;DHT22;2304;47.606;12.186;2023-01-28T11:52:39;5.50;57.00
4584;DHT22;2304;47.606;12.186;2023-01-28T11:57:52;5.80;57.10
4584;DHT22;2304;47.606;12.186;2023-01-28T12:03:14;5.90;56.20
4584;DHT22;2304;47.606;12.186;2023-01-28T12:08:23;5.90;56.50
4584;DHT22;2304;47.606;12.186;2023-01-28T12:13:36;6.20;56.80
4584;DHT22;2304;47.606;12.186;2023-01-28T12:18:55;6.40;55.90
4584;DHT22;2304;47.606;12.186;2023-01-28T12:24:12;6.40;54.70
4584;DHT22;2304;47.606;12.186;2023-01-28T12:29:24;6.10;54.40
4584;DHT22;2304;47.606;12.186;2023-01-28T12:40:17;5.80;55.20
4584;DHT22;2304;47.606;12.186;2023-01-28T12:45:29;5.60;55.90
4584;DHT22;2304;47.606;12.186;2023-01-28T12:50:37;5.40;56.20
4584;DHT22;2304;47.606;12.186;2023-01-28T12:55:43;5.30;57.00
4584;DHT22;2304;47.606;12.186;2023-01-28T13:00:50;5.20;57.10
4584;DHT22;2304;47.606;12.186;2023-01-28T13:05:58;5.00;57.20
4584;DHT22;2304;47.606;12.186;2023-01-28T13:11:02;4.90;57.40
4584;DHT22;2304;47.606;12.186;2023-01-28T13:16:08;4.60;57.40
4584;DHT22;2304;47.606;12.186;2023-01-28T13:21:14;4.60;58.30
4584;DHT22;2304;47.606;12.186;2023-01-28T13:26:35;4.50;58.40
4584;DHT22;2304;47.606;12.186;2023-01-28T13:31:41;4.30;58.60
4584;DHT22;2304;47.606;12.186;2023-01-28T13:36:44;4.20;59.60
4584;DHT22;2304;47.606;12.186;2023-01-28T13:41:49;3.90;59.70
4584;DHT22;2304;47.606;12.186;2023-01-28T13:46:53;3.70;60.30
4584;DHT22;2304;47.606;12.186;2023-01-28T13:51:58;3.60;60.90
4584;DHT22;2304;47.606;12.186;2023-01-28T13:57:23;3.50;61.50
4584;DHT22;2304;47.606;12.186;2023-01-28T14:02:51;3.50;61.30
4584;DHT22;2304;47.606;12.186;2023-01-28T14:19:30;3.30;62.40
4584;DHT22;2304;47.606;12.186;2023-01-28T14:24:33;3.20;62.70
4584;DHT22;2304;47.606;12.186;2023-01-28T14:29:45;3.10;62.40
4584;DHT22;2304;47.606;12.186;2023-01-28T14:34:52;3.20;62.60
4584;DHT22;2304;47.606;12.186;2023-01-28T14:39:57;3.20;61.90
4584;DHT22;2304;47.606;12.186;2023-01-28T14:45:13;3.20;62.40
4584;DHT22;2304;47.606;12.186;2023-01-28T14:50:30;3.20;62.10
4584;DHT22;2304;47.606;12.186;2023-01-28T14:55:39;3.20;62.50
4584;DHT22;2304;47.606;12.186;2023-01-28T15:00:54;3.20;62.30
4584;DHT22;2304;47.606;12.186;2023-01-28T15:06:12;3.00;62.10
4584;DHT22;2304;47.606;12.186;2023-01-28T15:11:18;2.90;63.00
4584;DHT22;2304;47.606;12.186;2023-01-28T15:16:22;2.80;62.70
4584;DHT22;2304;47.606;12.186;2023-01-28T15:21:27;2.80;63.00
4584;DHT22;2304;47.606;12.186;2023-01-28T15:26:31;2.70;62.50
4584;DHT22;2304;47.606;12.186;2023-01-28T15:31:34;2.70;62.80
4584;DHT22;2304;47.606;12.186;2023-01-28T15:36:40;2.80;63.50
4584;DHT22;2304;47.606;12.186;2023-01-28T15:41:43;2.80;64.00
4584;DHT22;2304;47.606;12.186;2023-01-28T15:46:46;2.80;63.40
4584;DHT22;2304;47.606;12.186;2023-01-28T15:51:49;2.80;63.70
4584;DHT22;2304;47.606;12.186;2023-01-28T15:56:51;2.80;63.30
4584;DHT22;2304;47.606;12.186;2023-01-28T16:02:16;2.80;63.10
4584;DHT22;2304;47.606;12.186;2023-01-28T16:07:19;2.80;63.40
4584;DHT22;2304;47.606;12.186;2023-01-28T16:12:22;2.60;63.50
4584;DHT22;2304;47.606;12.186;2023-01-28T16:17:28;2.60;63.80
4584;DHT22;2304;47.606;12.186;2023-01-28T16:22:34;2.60;64.10
4584;DHT22;2304;47.606;12.186;2023-01-28T16:27:36;2.60;64.00
4584;DHT22;2304;47.606;12.186;2023-01-28T16:32:39;2.60;64.30
4584;DHT22;2304;47.606;12.186;2023-01-28T16:37:43;2.50;64.20
4584;DHT22;2304;47.606;12.186;2023-01-28T16:42:45;2.50;64.50
4584;DHT22;2304;47.606;12.186;2023-01-28T16:47:48;2.60;65.00
4584;DHT22;2304;47.606;12.186;2023-01-28T16:52:52;2.50;64.70
4584;DHT22;2304;47.606;12.186;2023-01-28T16:57:56;2.60;64.70
4584;DHT22;2304;47.606;12.186;2023-01-28T17:02:58;2.50;64.80
4584;DHT22;2304;47.606;12.186;2023-01-28T17:08:01;2.50;64.90
4584;DHT22;2304;47.606;12.186;2023-01-28T17:13:03;2.50;64.70
4584;DHT22;2304;47.606;12.186;2023-01-28T17:18:04;2.50;64.70
4584;DHT22;2304;47.606;12.186;2023-01-28T17:23:08;2.50;64.70
4584;DHT22;2304;47.606;12.186;2023-01-28T17:28:13;2.50;65.10
4584;DHT22;2304;47.606;12.186;2023-01-28T17:33:15;2.60;64.90
4584;DHT22;2304;47.606;12.186;2023-01-28T17:38:18;2.60;65.00
4584;DHT22;2304;47.606;12.186;2023-01-28T17:43:20;2.60;65.00
4584;DHT22;2304;47.606;12.186;2023-01-28T17:48:21;2.70;64.90
4584;DHT22;2304;47.606;12.186;2023-01-28T17:53:25;2.70;64.90
4584;DHT22;2304;47.606;12.186;2023-01-28T17:58:27;2.70;64.80
4584;DHT22;2304;47.606;12.186;2023-01-28T18:03:28;2.60;65.00
4584;DHT22;2304;47.606;12.186;2023-01-28T18:08:32;2.60;65.10
4584;DHT22;2304;47.606;12.186;2023-01-28T18:13:34;2.60;65.00
4584;DHT22;2304;47.606;12.186;2023-01-28T18:18:36;2.60;65.30
4584;DHT22;2304;47.606;12.186;2023-01-28T18:23:40;2.60;65.10
4584;DHT22;2304;47.606;12.186;2023-01-28T18:28:41;2.60;65.10
4584;DHT22;2304;47.606;12.186;2023-01-28T18:33:43;2.60;65.00
4584;DHT22;2304;47.606;12.186;2023-01-28T18:38:47;2.60;65.30
4584;DHT22;2304;47.606;12.186;2023-01-28T18:43:48;2.60;65.40
4584;DHT22;2304;47.606;12.186;2023-01-28T18:48:50;2.60;66.40
4584;DHT22;2304;47.606;12.186;2023-01-28T18:53:55;2.50;66.00
4584;DHT22;2304;47.606;12.186;2023-01-28T18:58:57;2.50;66.10
4584;DHT22;2304;47.606;12.186;2023-01-28T19:04:00;2.40;66.50
4584;DHT22;2304;47.606;12.186;2023-01-28T19:09:05;2.40;68.40
4584;DHT22;2304;47.606;12.186;2023-01-28T19:14:07;2.40;66.60
4584;DHT22;2304;47.606;12.186;2023-01-28T19:19:09;2.40;66.10
4584;DHT22;2304;47.606;12.186;2023-01-28T19:24:13;2.40;67.00
4584;DHT22;2304;47.606;12.186;2023-01-28T19:29:14;2.40;66.30
4584;DHT22;2304;47.606;12.186;2023-01-28T19:34:16;2.40;66.20
4584;DHT22;2304;47.606;12.186;2023-01-28T19:39:19;2.40;66.20
4584;DHT22;2304;47.606;12.186;2023-01-28T19:44:21;2.50;66.40
4584;DHT22;2304;47.606;12.186;2023-01-28T19:49:23;2.50;66.50
4584;DHT22;2304;47.606;12.186;2023-01-28T19:54:26;2.50;66.40
4584;DHT22;2304;47.606;12.186;2023-01-28T19:59:28;2.50;66.40
4584;DHT22;2304;47.606;12.186;2023-01-28T20:04:30;2.50;66.50
4584;DHT22;2304;47.606;12.186;2023-01-28T20:09:33;2.50;66.30
4584;DHT22;2304;47.606;12.186;2023-01-28T20:14:35;2.60;69.90
4584;DHT22;2304;47.606;12.186;2023-01-28T20:19:37;2.60;67.50
4584;DHT22;2304;47.606;12.186;2023-01-28T20:24:40;2.60;66.90
4584;DHT22;2304;47.606;12.186;2023-01-28T20:29:42;2.60;66.70
4584;DHT22;2304;47.606;12.186;2023-01-28T20:34:43;2.50;66.60
4584;DHT22;2304;47.606;12.186;2023-01-28T20:39:47;2.50;66.60
4584;DHT22;2304;47.606;12.186;2023-01-28T20:44:48;2.50;66.80
4584;DHT22;2304;47.606;12.186;2023-01-28T20:49:51;2.50;66.70
4584;DHT22;2304;47.606;12.186;2023-01-28T20:54:55;2.50;66.80
4584;DHT22;2304;47.606;12.186;2023-01-28T20:59:57;2.40;67.00
4584;DHT22;2304;47.606;12.186;2023-01-28T21:04:58;2.40;67.40
4584;DHT22;2304;47.606;12.186;2023-01-28T21:10:02;2.40;67.40
4584;DHT22;2304;47.606;12.186;2023-01-28T21:15:05;2.40;67.40
4584;DHT22;2304;47.606;12.186;2023-01-28T21:20:08;2.40;67.10
4584;DHT22;2304;47.606;12.186;2023-01-28T21:25:12;2.40;66.80
4584;DHT22;2304;47.606;12.186;2023-01-28T21:30:16;2.40;66.70
4584;DHT22;2304;47.606;12.186;2023-01-28T21:35:19;2.30;67.00
4584;DHT22;2304;47.606;12.186;2023-01-28T21:40:22;2.10;66.90
4584;DHT22;2304;47.606;12.186;2023-01-28T21:45:24;2.10;67.10
4584;DHT22;2304;47.606;12.186;2023-01-28T21:50:26;2.00;68.00
4584;DHT22;2304;47.606;12.186;2023-01-28T21:55:29;2.00;68.00
4584;DHT22;2304;47.606;12.186;2023-01-28T22:00:31;2.00;67.20
4584;DHT22;2304;47.606;12.186;2023-01-28T22:05:32;2.10;68.40
4584;DHT22;2304;47.606;12.186;2023-01-28T22:10:36;2.00;67.30
4584;DHT22;2304;47.606;12.186;2023-01-28T22:15:38;2.10;71.20
4584;DHT22;2304;47.606;12.186;2023-01-28T22:20:40;2.10;68.60
4584;DHT22;2304;47.606;12.186;2023-01-28T22:25:44;2.00;67.70
4584;DHT22;2304;47.606;12.186;2023-01-28T22:30:46;1.90;67.90
4584;DHT22;2304;47.606;12.186;2023-01-28T22:35:48;1.90;67.90
4584;DHT22;2304;47.606;12.186;2023-01-28T22:40:51;1.90;67.70
4584;DHT22;2304;47.606;12.186;2023-01-28T22:45:57;1.80;67.50
4584;DHT22;2304;47.606;12.186;2023-01-28T22:51:03;1.80;68.00
4584;DHT22;2304;47.606;12.186;2023-01-28T22:56:07;1.70;67.80
4584;DHT22;2304;47.606;12.186;2023-01-28T23:01:08;1.70;67.60
4584;DHT22;2304;47.606;12.186;2023-01-28T23:06:11;1.70;67.50
4584;DHT22;2304;47.606;12.186;2023-01-28T23:11:14;1.60;67.20
4584;DHT22;2304;47.606;12.186;2023-01-28T23:16:24;1.50;67.30
4584;DHT22;2304;47.606;12.186;2023-01-28T23:21:44;1.40;67.60
4584;DHT22;2304;47.606;12.186;2023-01-28T23:27:04;1.30;68.90
4584;DHT22;2304;47.606;12.186;2023-01-28T23:32:08;1.30;69.20
4584;DHT22;2304;47.606;12.186;2023-01-28T23:37:11;1.30;70.00
4584;DHT22;2304;47.606;12.186;2023-01-28T23:42:17;1.40;69.90
4584;DHT22;2304;47.606;12.186;2023-01-28T23:47:20;1.50;69.50
4584;DHT22;2304;47.606;12.186;2023-01-28T23:52:21;1.50;69.70
4584;DHT22;2304;47.606;12.186;2023-01-28T23:57:26;1.40;70.20
